Time;durP1;ratioP1;P1;durP2;ratioP2;P2;SDS_P1;SDS_P2;PMS_P1;PMS_P2;Temp;Humidity;BMP_temperature;BMP_pressure;BME280_temperature;BME280_humidity;BME280_pressure;Samples;Min_cycle;Max_cycle;Signal;HPM_P1;HPM_P2
2023/10/30 00:00:08;;;;;;;7.82;1.85;;;;;;;;;;5053987;28;20025;-69
2023/10/30 00:02:37;;;;;;;11.85;2.38;;;;;;;;;;5053611;28;20059;-69
2023/10/30 00:05:03;;;;;;;12.68;1.83;;;;;;;;;;5036086;28;20028;-69
2023/10/30 00:07:29;;;;;;;10.57;1.90;;;;;;;;;;5048424;28;20021;-69
2023/10/30 00:09:55;;;;;;;9.32;2.65;;;;;;;;;;5053700;28;20025;-69
2023/10/30 00:12:20;;;;;;;11.73;4.43;;;;;;;;;;5033559;28;20496;-69
2023/10/30 00:14:45;;;;;;;11.00;2.92;;;;;;;;;;5043637;28;20021;-69
2023/10/30 00:17:10;;;;;;;13.35;2.90;;;;;;;;;;5033361;28;20075;-69
2023/10/30 00:19:36;;;;;;;9.73;2.80;;;;;;;;;;5033541;28;20112;-69
2023/10/30 00:22:01;;;;;;;9.40;3.65;;;;;;;;;;5033721;28;20033;-69
2023/10/30 00:24:29;;;;;;;13.57;2.90;;;;;;;;;;5032992;28;20025;-69
2023/10/30 00:26:54;;;;;;;20.60;2.80;;;;;;;;;;5035899;28;20065;-69
2023/10/30 00:29:19;;;;;;;16.02;3.00;;;;;;;;;;5037433;28;20029;-69
2023/10/30 00:31:45;;;;;;;24.55;3.75;;;;;;;;;;5039639;28;20037;-69
2023/10/30 00:34:12;;;;;;;14.98;3.45;;;;;;;;;;5032710;28;20087;-69
2023/10/30 00:36:37;;;;;;;10.85;3.45;;;;;;;;;;5044985;28;20490;-69
2023/10/30 00:39:03;;;;;;;18.95;5.25;;;;;;;;;;5052367;28;20048;-69
2023/10/30 00:41:28;;;;;;;13.98;3.33;;;;;;;;;;5052424;28;20057;-69
2023/10/30 00:43:53;;;;;;;19.13;3.80;;;;;;;;;;5036059;28;20025;-69
2023/10/30 00:46:19;;;;;;;17.15;2.72;;;;;;;;;;5025983;28;20059;-69
2023/10/30 00:48:44;;;;;;;20.30;3.75;;;;;;;;;;5053497;28;20116;-69
2023/10/30 00:51:10;;;;;;;17.25;4.10;;;;;;;;;;5044511;28;20029;-69
2023/10/30 00:53:35;;;;;;;16.92;3.45;;;;;;;;;;5015462;28;20025;-69
2023/10/30 00:56:00;;;;;;;11.52;3.22;;;;;;;;;;5036174;28;20021;-69
2023/10/30 00:58:25;;;;;;;14.57;3.17;;;;;;;;;;5047735;28;20017;-69
2023/10/30 01:00:51;;;;;;;20.75;3.50;;;;;;;;;;5052885;28;20036;-69
2023/10/30 01:03:19;;;;;;;14.77;2.63;;;;;;;;;;5052074;28;20082;-69
2023/10/30 01:05:45;;;;;;;11.45;2.97;;;;;;;;;;5052704;28;20032;-69
2023/10/30 01:08:10;;;;;;;14.27;2.33;;;;;;;;;;5052756;28;20025;-69
2023/10/30 01:10:36;;;;;;;17.08;3.67;;;;;;;;;;5035066;28;20020;-69
2023/10/30 01:13:01;;;;;;;9.93;3.20;;;;;;;;;;5053040;28;20100;-69
2023/10/30 01:15:27;;;;;;;13.00;2.78;;;;;;;;;;5052080;28;20032;-69
2023/10/30 01:17:52;;;;;;;17.20;3.72;;;;;;;;;;5052497;28;20020;-69
2023/10/30 01:20:18;;;;;;;16.05;2.55;;;;;;;;;;5052475;28;20033;-69
2023/10/30 01:22:43;;;;;;;16.45;2.70;;;;;;;;;;5052969;28;20394;-69
2023/10/30 01:25:08;;;;;;;11.82;2.75;;;;;;;;;;5052288;28;20150;-69
2023/10/30 01:27:34;;;;;;;7.00;2.30;;;;;;;;;;5052152;28;20032;-69
2023/10/30 01:29:59;;;;;;;11.95;2.50;;;;;;;;;;5051256;28;20482;-69
2023/10/30 01:32:25;;;;;;;9.60;2.33;;;;;;;;;;5033372;28;20025;-69
2023/10/30 01:34:50;;;;;;;12.77;2.80;;;;;;;;;;5032853;28;20040;-69
2023/10/30 01:37:20;;;;;;;11.23;2.72;;;;;;;;;;5039337;28;20028;-69
2023/10/30 01:39:46;;;;;;;13.98;3.08;;;;;;;;;;5018576;28;20478;-69
2023/10/30 01:42:11;;;;;;;11.90;2.40;;;;;;;;;;5045290;28;20122;-69
2023/10/30 01:44:52;;;;;;;18.30;3.45;;;;;;;;;;5055392;28;20020;-69
2023/10/30 01:47:18;;;;;;;19.38;2.50;;;;;;;;;;5029113;28;20144;-69
2023/10/30 01:49:43;;;;;;;14.90;2.92;;;;;;;;;;5035943;28;20108;-69
2023/10/30 01:52:08;;;;;;;9.90;2.50;;;;;;;;;;5036599;28;20021;-69
2023/10/30 01:54:33;;;;;;;14.93;2.47;;;;;;;;;;5038669;28;20501;-69
2023/10/30 01:56:59;;;;;;;22.73;3.53;;;;;;;;;;5056329;28;20098;-69
2023/10/30 01:59:24;;;;;;;17.13;3.95;;;;;;;;;;5035774;28;20035;-69
2023/10/30 02:01:50;;;;;;;9.70;2.20;;;;;;;;;;5038231;28;20025;-69
2023/10/30 02:04:15;;;;;;;9.27;2.40;;;;;;;;;;5036479;28;20017;-69
2023/10/30 02:06:40;;;;;;;10.75;2.42;;;;;;;;;;5044463;28;20091;-69
2023/10/30 02:09:05;;;;;;;18.17;2.55;;;;;;;;;;5036095;28;20032;-69
2023/10/30 02:11:31;;;;;;;9.85;2.08;;;;;;;;;;5020669;28;20034;-69
2023/10/30 02:13:56;;;;;;;14.77;2.75;;;;;;;;;;5046949;28;20030;-69
2023/10/30 02:16:22;;;;;;;14.88;3.75;;;;;;;;;;5017336;28;20041;-69
2023/10/30 02:18:47;;;;;;;12.38;1.90;;;;;;;;;;5048575;28;20029;-69
2023/10/30 02:21:12;;;;;;;9.05;2.75;;;;;;;;;;5055719;28;20033;-69
2023/10/30 02:23:37;;;;;;;14.50;2.60;;;;;;;;;;5055473;28;20059;-69
2023/10/30 02:26:03;;;;;;;24.45;4.28;;;;;;;;;;5054812;28;20466;-69
2023/10/30 02:28:28;;;;;;;22.90;4.20;;;;;;;;;;5055359;28;20071;-69
2023/10/30 02:30:53;;;;;;;9.30;2.65;;;;;;;;;;5055472;28;20029;-69
2023/10/30 02:33:19;;;;;;;13.43;2.92;;;;;;;;;;5055604;28;20032;-69
2023/10/30 02:35:44;;;;;;;15.05;3.10;;;;;;;;;;5038302;28;20021;-69
2023/10/30 02:38:09;;;;;;;14.85;2.67;;;;;;;;;;5034749;28;20022;-69
2023/10/30 02:40:34;;;;;;;12.48;2.33;;;;;;;;;;5042951;28;20024;-69
2023/10/30 02:43:00;;;;;;;12.85;2.60;;;;;;;;;;5055738;28;20067;-69
2023/10/30 02:45:25;;;;;;;8.45;3.00;;;;;;;;;;5037461;28;20363;-69
2023/10/30 02:47:50;;;;;;;14.20;2.72;;;;;;;;;;5054290;28;20055;-69
2023/10/30 02:50:16;;;;;;;8.55;2.38;;;;;;;;;;5054915;28;20408;-69
2023/10/30 02:52:41;;;;;;;14.13;2.72;;;;;;;;;;5055456;28;20021;-69
2023/10/30 02:55:07;;;;;;;11.07;2.45;;;;;;;;;;5054565;28;20048;-69
2023/10/30 02:57:32;;;;;;;8.32;2.95;;;;;;;;;;5045762;28;20053;-69
2023/10/30 02:59:57;;;;;;;15.38;2.85;;;;;;;;;;5054379;28;20104;-69
2023/10/30 03:02:23;;;;;;;10.18;2.58;;;;;;;;;;5028355;28;20044;-69
2023/10/30 03:04:48;;;;;;;14.48;2.55;;;;;;;;;;5034880;28;20032;-69
2023/10/30 03:07:15;;;;;;;13.50;2.30;;;;;;;;;;5040406;28;20021;-69
2023/10/30 03:09:40;;;;;;;17.70;2.63;;;;;;;;;;5054660;28;20048;-69
2023/10/30 03:12:06;;;;;;;11.07;2.38;;;;;;;;;;5036899;28;20029;-69
2023/10/30 03:14:31;;;;;;;15.07;2.60;;;;;;;;;;5043837;28;20540;-69
2023/10/30 03:16:56;;;;;;;14.77;3.45;;;;;;;;;;5047180;28;20522;-69
2023/10/30 03:19:22;;;;;;;10.77;1.92;;;;;;;;;;5028039;28;20034;-69
2023/10/30 03:21:47;;;;;;;15.73;2.67;;;;;;;;;;5034930;28;20053;-69
2023/10/30 03:24:12;;;;;;;12.07;2.42;;;;;;;;;;5034788;28;20017;-69
2023/10/30 03:26:37;;;;;;;12.85;2.65;;;;;;;;;;5043025;28;20402;-69
2023/10/30 03:29:03;;;;;;;5.63;2.38;;;;;;;;;;5029092;28;20151;-69
2023/10/30 03:31:28;;;;;;;17.48;3.05;;;;;;;;;;5048060;28;20017;-69
2023/10/30 03:33:53;;;;;;;16.30;2.60;;;;;;;;;;5055137;28;20410;-69
2023/10/30 03:36:20;;;;;;;9.77;2.38;;;;;;;;;;5051963;28;20029;-69
2023/10/30 03:38:45;;;;;;;13.07;2.20;;;;;;;;;;5016763;28;20487;-69
2023/10/30 03:41:10;;;;;;;12.93;2.75;;;;;;;;;;5035542;28;20109;-69
2023/10/30 03:43:36;;;;;;;12.05;2.25;;;;;;;;;;5041789;28;20482;-69
2023/10/30 03:46:01;;;;;;;7.55;2.05;;;;;;;;;;5038341;28;20104;-69
2023/10/30 03:48:26;;;;;;;8.88;2.70;;;;;;;;;;5047205;28;20422;-69
2023/10/30 03:50:52;;;;;;;13.18;2.55;;;;;;;;;;5034346;28;20364;-69
2023/10/30 03:53:17;;;;;;;10.13;2.10;;;;;;;;;;5034191;28;20067;-69
2023/10/30 03:55:42;;;;;;;11.43;2.03;;;;;;;;;;5051866;28;20037;-69
2023/10/30 03:58:07;;;;;;;16.83;3.72;;;;;;;;;;5044690;28;20021;-69
2023/10/30 04:00:33;;;;;;;12.95;2.53;;;;;;;;;;5050100;28;20029;-69
2023/10/30 04:02:58;;;;;;;16.77;3.30;;;;;;;;;;5034845;28;20021;-69
2023/10/30 04:05:23;;;;;;;9.93;2.13;;;;;;;;;;5033528;28;20021;-69
2023/10/30 04:07:49;;;;;;;8.50;2.13;;;;;;;;;;5043975;28;20024;-69
2023/10/30 04:10:14;;;;;;;6.57;1.88;;;;;;;;;;5054031;28;20039;-69
2023/10/30 04:12:39;;;;;;;8.20;2.22;;;;;;;;;;5053213;28;20108;-69
2023/10/30 04:15:05;;;;;;;7.45;1.98;;;;;;;;;;5053667;28;20028;-69
2023/10/30 04:17:30;;;;;;;5.10;2.15;;;;;;;;;;5053227;28;20021;-69
2023/10/30 04:19:56;;;;;;;10.60;2.85;;;;;;;;;;5053312;28;20033;-69
2023/10/30 04:22:21;;;;;;;13.02;2.15;;;;;;;;;;5050495;28;20090;-69
2023/10/30 04:24:46;;;;;;;5.70;2.42;;;;;;;;;;5053117;28;20025;-69
2023/10/30 04:27:12;;;;;;;5.63;2.50;;;;;;;;;;5053141;28;20029;-69
2023/10/30 04:29:37;;;;;;;12.32;2.67;;;;;;;;;;5044862;28;20049;-69
2023/10/30 04:32:03;;;;;;;7.05;1.90;;;;;;;;;;5045560;28;20024;-69
2023/10/30 04:34:29;;;;;;;11.25;2.65;;;;;;;;;;5035378;28;20478;-69
2023/10/30 04:36:55;;;;;;;9.70;2.60;;;;;;;;;;5051066;28;20029;-69
2023/10/30 04:39:20;;;;;;;8.35;2.60;;;;;;;;;;5034902;28;20048;-69
2023/10/30 04:41:45;;;;;;;5.50;1.83;;;;;;;;;;5033130;28;20502;-69
2023/10/30 04:44:10;;;;;;;6.85;2.22;;;;;;;;;;5025409;28;20018;-69
2023/10/30 04:46:36;;;;;;;13.02;2.33;;;;;;;;;;5042357;28;20497;-69
2023/10/30 04:49:01;;;;;;;6.57;2.00;;;;;;;;;;5053496;28;20058;-69
2023/10/30 04:51:26;;;;;;;13.93;2.42;;;;;;;;;;5052498;28;20051;-69
2023/10/30 04:53:53;;;;;;;11.07;2.13;;;;;;;;;;5034880;28;20036;-69
2023/10/30 04:56:19;;;;;;;3.80;2.00;;;;;;;;;;5032863;28;20443;-69
2023/10/30 04:58:44;;;;;;;8.55;2.53;;;;;;;;;;5039228;28;20092;-68
2023/10/30 05:01:09;;;;;;;12.23;2.42;;;;;;;;;;5038314;28;20036;-69
2023/10/30 05:03:36;;;;;;;9.23;2.50;;;;;;;;;;5053546;28;20437;-69
2023/10/30 05:06:02;;;;;;;7.50;1.95;;;;;;;;;;5034686;28;20028;-69
2023/10/30 05:08:27;;;;;;;9.63;1.85;;;;;;;;;;5034344;28;20036;-69
2023/10/30 05:10:52;;;;;;;7.13;2.05;;;;;;;;;;5055457;28;20080;-69
2023/10/30 05:13:18;;;;;;;7.43;2.10;;;;;;;;;;5056711;28;20021;-69
2023/10/30 05:15:43;;;;;;;13.52;2.90;;;;;;;;;;5056738;28;20428;-69
2023/10/30 05:18:08;;;;;;;11.43;2.83;;;;;;;;;;5042654;28;20048;-69
2023/10/30 05:20:33;;;;;;;4.93;2.28;;;;;;;;;;5019383;28;20040;-69
2023/10/30 05:22:59;;;;;;;7.95;2.17;;;;;;;;;;5042199;28;20437;-69
2023/10/30 05:25:24;;;;;;;6.78;2.30;;;;;;;;;;5036674;28;20018;-69
2023/10/30 05:27:50;;;;;;;5.97;2.47;;;;;;;;;;5038295;28;20397;-69
2023/10/30 05:30:15;;;;;;;5.07;2.03;;;;;;;;;;5036950;28;20021;-69
2023/10/30 05:32:40;;;;;;;8.90;2.92;;;;;;;;;;5040749;28;20393;-69
2023/10/30 05:35:06;;;;;;;8.25;2.03;;;;;;;;;;5036717;28;20029;-69
2023/10/30 05:37:31;;;;;;;16.77;5.07;;;;;;;;;;5040296;28;20014;-68
2023/10/30 05:39:56;;;;;;;12.30;3.13;;;;;;;;;;5055004;28;20123;-69
2023/10/30 05:42:22;;;;;;;7.68;2.30;;;;;;;;;;5053387;28;20078;-69
2023/10/30 05:44:47;;;;;;;7.60;2.35;;;;;;;;;;5038654;28;20398;-69
2023/10/30 05:47:13;;;;;;;8.23;3.17;;;;;;;;;;5036211;28;20479;-69
2023/10/30 05:49:39;;;;;;;10.90;3.17;;;;;;;;;;5036615;28;20548;-69
2023/10/30 05:52:04;;;;;;;16.05;2.67;;;;;;;;;;5019824;28;20013;-69
2023/10/30 05:54:29;;;;;;;17.02;2.40;;;;;;;;;;5052203;28;20471;-69
2023/10/30 05:56:55;;;;;;;12.18;2.92;;;;;;;;;;5049448;28;20393;-69
2023/10/30 05:59:20;;;;;;;8.52;2.53;;;;;;;;;;5055039;28;20068;-69
2023/10/30 06:01:47;;;;;;;4.50;2.35;;;;;;;;;;5055034;28;20066;-69
2023/10/30 06:04:13;;;;;;;7.50;2.42;;;;;;;;;;5055519;28;20029;-69
2023/10/30 06:06:38;;;;;;;14.00;2.60;;;;;;;;;;5055850;28;20027;-69
2023/10/30 06:09:04;;;;;;;5.05;2.60;;;;;;;;;;5040847;28;20026;-69
2023/10/30 06:11:29;;;;;;;6.93;2.30;;;;;;;;;;5035778;28;20030;-69
2023/10/30 06:13:54;;;;;;;7.93;2.40;;;;;;;;;;5046297;28;20025;-69
2023/10/30 06:16:19;;;;;;;12.25;2.45;;;;;;;;;;5055875;28;20078;-69
2023/10/30 06:18:45;;;;;;;7.65;2.28;;;;;;;;;;5055692;28;20499;-69
2023/10/30 06:21:15;;;;;;;6.40;2.08;;;;;;;;;;5037243;28;20082;-69
2023/10/30 06:23:40;;;;;;;8.68;2.25;;;;;;;;;;5041359;28;20084;-69
2023/10/30 06:26:09;;;;;;;10.38;2.58;;;;;;;;;;5017257;28;20037;-69
2023/10/30 06:28:35;;;;;;;9.77;2.30;;;;;;;;;;5025863;28;20025;-69
2023/10/30 06:31:00;;;;;;;10.63;3.00;;;;;;;;;;5038266;28;20452;-69
2023/10/30 06:33:26;;;;;;;6.85;2.45;;;;;;;;;;5055475;28;20066;-69
2023/10/30 06:36:00;;;;;;;5.22;2.35;;;;;;;;;;5037585;28;20025;-69
2023/10/30 06:38:25;;;;;;;12.23;2.88;;;;;;;;;;5055878;28;20355;-69
2023/10/30 06:40:50;;;;;;;5.35;2.25;;;;;;;;;;5054673;28;20107;-69
2023/10/30 06:43:16;;;;;;;9.75;3.05;;;;;;;;;;5050258;28;20026;-69
2023/10/30 06:45:41;;;;;;;10.88;2.80;;;;;;;;;;5052139;28;20483;-69
2023/10/30 06:48:07;;;;;;;8.20;2.30;;;;;;;;;;5040107;28;20116;-69
2023/10/30 06:50:32;;;;;;;11.05;2.40;;;;;;;;;;5035096;28;20025;-69
2023/10/30 06:52:58;;;;;;;13.43;2.83;;;;;;;;;;5036990;28;20036;-69
2023/10/30 06:55:23;;;;;;;10.40;2.92;;;;;;;;;;5034976;28;20061;-69
2023/10/30 06:57:48;;;;;;;10.60;2.47;;;;;;;;;;5036432;28;20018;-69
2023/10/30 07:00:14;;;;;;;9.32;2.45;;;;;;;;;;5055163;28;20040;-69
2023/10/30 07:02:41;;;;;;;7.55;2.22;;;;;;;;;;5053423;28;20470;-69
2023/10/30 07:05:06;;;;;;;14.43;2.90;;;;;;;;;;5054813;28;20475;-69
2023/10/30 07:07:31;;;;;;;11.45;2.42;;;;;;;;;;5047267;28;20036;-69
2023/10/30 07:09:57;;;;;;;12.98;2.53;;;;;;;;;;5035066;28;20025;-69
2023/10/30 07:12:22;;;;;;;10.95;2.28;;;;;;;;;;5035805;28;20033;-69
2023/10/30 07:14:48;;;;;;;9.00;3.10;;;;;;;;;;5035305;28;20057;-69
2023/10/30 07:17:13;;;;;;;9.73;2.60;;;;;;;;;;5040596;28;20437;-68
2023/10/30 07:19:39;;;;;;;13.50;2.58;;;;;;;;;;5034692;28;20068;-69
2023/10/30 07:22:04;;;;;;;8.05;2.20;;;;;;;;;;5038571;28;20056;-70
2023/10/30 07:24:30;;;;;;;16.20;2.80;;;;;;;;;;5036114;28;20048;-69
2023/10/30 07:26:57;;;;;;;10.90;2.75;;;;;;;;;;5035399;28;20051;-69
2023/10/30 07:29:23;;;;;;;11.15;2.40;;;;;;;;;;5049797;28;20020;-69
2023/10/30 07:31:48;;;;;;;6.50;2.08;;;;;;;;;;5054553;28;20470;-69
2023/10/30 07:34:14;;;;;;;8.85;2.10;;;;;;;;;;5054228;28;20025;-68
2023/10/30 07:36:40;;;;;;;9.93;3.20;;;;;;;;;;5031394;28;20021;-69
2023/10/30 07:39:07;;;;;;;10.05;2.30;;;;;;;;;;5045647;28;20385;-69
2023/10/30 07:41:33;;;;;;;16.13;2.80;;;;;;;;;;5036423;28;20035;-69
2023/10/30 07:43:59;;;;;;;11.23;2.33;;;;;;;;;;5054090;28;20025;-69
2023/10/30 07:46:25;;;;;;;9.05;2.33;;;;;;;;;;5036463;28;20061;-69
2023/10/30 07:48:50;;;;;;;15.35;4.35;;;;;;;;;;5053672;28;20025;-69
2023/10/30 07:51:15;;;;;;;6.22;1.88;;;;;;;;;;5071284;23;20045;-70
2023/10/30 07:53:41;;;;;;;11.68;3.28;;;;;;;;;;5033417;28;20167;-71
2023/10/30 07:56:06;;;;;;;10.48;2.67;;;;;;;;;;5033279;28;20028;-71
2023/10/30 07:58:32;;;;;;;16.98;3.15;;;;;;;;;;5016085;28;20057;-70
2023/10/30 08:00:57;;;;;;;11.60;2.63;;;;;;;;;;5021170;28;20033;-70
2023/10/30 08:03:22;;;;;;;17.83;2.67;;;;;;;;;;5014616;28;20026;-71
2023/10/30 08:05:48;;;;;;;7.88;2.75;;;;;;;;;;5029128;28;20078;-71
2023/10/30 08:08:17;;;;;;;14.32;3.42;;;;;;;;;;5024954;28;20100;-71
2023/10/30 08:10:43;;;;;;;5.38;2.25;;;;;;;;;;5015060;28;20482;-71
2023/10/30 08:13:08;;;;;;;7.85;2.38;;;;;;;;;;5004749;28;20391;-71
2023/10/30 08:15:34;;;;;;;12.40;2.60;;;;;;;;;;5024177;28;20025;-71
2023/10/30 08:17:59;;;;;;;6.07;1.92;;;;;;;;;;5032964;28;20040;-71
2023/10/30 08:20:24;;;;;;;14.38;2.83;;;;;;;;;;5032689;28;20021;-71
2023/10/30 08:22:50;;;;;;;8.70;2.40;;;;;;;;;;5030565;28;20047;-71
2023/10/30 08:25:15;;;;;;;10.82;2.75;;;;;;;;;;5032471;28;20064;-71
2023/10/30 08:27:41;;;;;;;12.75;2.58;;;;;;;;;;5027258;28;20467;-71
2023/10/30 08:30:06;;;;;;;12.15;2.88;;;;;;;;;;5030191;28;20037;-71
2023/10/30 08:32:32;;;;;;;10.60;2.72;;;;;;;;;;5015850;28;20033;-71
2023/10/30 08:35:01;;;;;;;18.90;2.85;;;;;;;;;;5012807;28;20030;-70
2023/10/30 08:37:26;;;;;;;10.10;2.65;;;;;;;;;;5014905;28;20057;-69
2023/10/30 08:39:52;;;;;;;11.85;2.50;;;;;;;;;;5012802;28;20451;-69
2023/10/30 08:42:17;;;;;;;14.93;2.78;;;;;;;;;;5012104;28;20117;-69
2023/10/30 08:44:42;;;;;;;11.60;2.30;;;;;;;;;;5023566;28;20033;-69
2023/10/30 08:47:08;;;;;;;10.13;2.45;;;;;;;;;;5021548;28;20080;-69
2023/10/30 08:49:33;;;;;;;8.85;2.40;;;;;;;;;;5012686;28;20133;-69
2023/10/30 08:51:58;;;;;;;12.32;2.85;;;;;;;;;;5000391;28;20026;-69
2023/10/30 08:54:24;;;;;;;10.88;2.47;;;;;;;;;;5031908;28;20040;-68
2023/10/30 08:56:49;;;;;;;10.07;2.92;;;;;;;;;;5032347;28;20018;-69
2023/10/30 08:59:14;;;;;;;10.95;2.60;;;;;;;;;;5032549;28;20441;-69
2023/10/30 09:01:40;;;;;;;20.60;4.22;;;;;;;;;;5032686;28;20025;-69
2023/10/30 09:04:06;;;;;;;13.73;2.53;;;;;;;;;;5033072;28;20515;-68
2023/10/30 09:06:32;;;;;;;8.20;2.05;;;;;;;;;;5033008;28;20052;-68
2023/10/30 09:08:57;;;;;;;12.57;2.45;;;;;;;;;;5014207;28;20022;-68
2023/10/30 09:11:23;;;;;;;15.38;2.70;;;;;;;;;;5032771;28;20022;-69
2023/10/30 09:13:48;;;;;;;13.57;2.45;;;;;;;;;;5032699;28;20399;-68
2023/10/30 09:16:13;;;;;;;22.40;3.35;;;;;;;;;;5032795;28;20108;-68
2023/10/30 09:18:38;;;;;;;16.90;3.53;;;;;;;;;;5032724;28;20470;-68
2023/10/30 09:21:04;;;;;;;18.60;3.25;;;;;;;;;;5032406;28;20025;-68
2023/10/30 09:23:29;;;;;;;14.98;2.35;;;;;;;;;;5031895;28;20021;-68
2023/10/30 09:25:55;;;;;;;13.10;3.25;;;;;;;;;;5032557;28;20458;-68
2023/10/30 09:28:20;;;;;;;12.73;2.40;;;;;;;;;;5032220;28;20025;-68
2023/10/30 09:30:45;;;;;;;11.52;2.85;;;;;;;;;;5032364;28;20438;-68
2023/10/30 09:33:11;;;;;;;10.73;3.22;;;;;;;;;;5031836;28;20474;-68
2023/10/30 09:35:37;;;;;;;9.70;2.95;;;;;;;;;;5032561;28;20033;-68
2023/10/30 09:38:03;;;;;;;13.88;2.60;;;;;;;;;;5014363;28;20025;-68
2023/10/30 09:40:28;;;;;;;7.25;2.15;;;;;;;;;;5031992;28;20458;-68
2023/10/30 09:42:54;;;;;;;15.98;3.15;;;;;;;;;;5032389;28;20041;-68
2023/10/30 09:45:24;;;;;;;11.18;2.35;;;;;;;;;;5032171;28;20081;-68
2023/10/30 09:47:54;;;;;;;11.05;2.85;;;;;;;;;;5032609;28;20033;-68
2023/10/30 09:50:20;;;;;;;6.40;2.45;;;;;;;;;;5014501;28;20033;-69
2023/10/30 09:52:46;;;;;;;9.23;2.40;;;;;;;;;;5031400;28;20033;-69
2023/10/30 09:55:12;;;;;;;22.50;3.15;;;;;;;;;;5032103;28;20021;-68
2023/10/30 09:57:38;;;;;;;11.98;2.55;;;;;;;;;;5016568;28;20029;-69
2023/10/30 10:00:05;;;;;;;14.20;2.83;;;;;;;;;;5033630;28;20021;-68
2023/10/30 10:02:32;;;;;;;15.52;3.45;;;;;;;;;;5018104;28;20030;-69
2023/10/30 10:04:57;;;;;;;6.57;2.20;;;;;;;;;;5017965;28;20375;-68
2023/10/30 10:07:24;;;;;;;21.08;4.82;;;;;;;;;;5023685;28;20033;-68
2023/10/30 10:10:18;;;;;;;5.22;2.42;;;;;;;;;;5014224;28;20026;-68
2023/10/30 10:12:43;;;;;;;6.65;2.20;;;;;;;;;;5011813;28;20037;-68
2023/10/30 10:15:09;;;;;;;14.05;3.88;;;;;;;;;;4997110;28;20048;-68
2023/10/30 10:17:51;;;;;;;13.75;2.75;;;;;;;;;;5014133;28;20103;-69
2023/10/30 10:20:17;;;;;;;10.70;2.63;;;;;;;;;;5014240;28;20376;-68
2023/10/30 10:22:42;;;;;;;14.43;4.43;;;;;;;;;;4998314;28;20026;-69
2023/10/30 10:25:10;;;;;;;15.80;2.75;;;;;;;;;;5016755;28;20022;-69
2023/10/30 10:27:36;;;;;;;13.48;2.53;;;;;;;;;;4994918;28;20387;-68
2023/10/30 10:30:01;;;;;;;8.57;2.28;;;;;;;;;;5014273;28;20022;-68
2023/10/30 10:32:28;;;;;;;10.88;2.72;;;;;;;;;;5013634;28;20033;-68
2023/10/30 10:35:05;;;;;;;11.85;2.30;;;;;;;;;;4996827;28;20084;-69
2023/10/30 10:37:31;;;;;;;12.80;2.35;;;;;;;;;;4997387;28;20390;-69
2023/10/30 10:39:56;;;;;;;13.95;2.58;;;;;;;;;;5019980;28;20108;-69
2023/10/30 10:42:23;;;;;;;12.68;3.35;;;;;;;;;;5033460;28;20021;-68
2023/10/30 10:44:51;;;;;;;9.15;2.55;;;;;;;;;;5016065;28;20479;-69
2023/10/30 10:47:17;;;;;;;12.10;2.83;;;;;;;;;;5016033;28;20057;-69
2023/10/30 10:49:42;;;;;;;11.43;2.45;;;;;;;;;;5015379;28;20030;-69
2023/10/30 10:52:09;;;;;;;11.23;2.47;;;;;;;;;;5033242;28;20037;-69
2023/10/30 10:54:54;;;;;;;6.45;2.00;;;;;;;;;;5032953;28;20064;-69
2023/10/30 10:57:21;;;;;;;11.75;2.47;;;;;;;;;;5013752;28;20036;-69
2023/10/30 10:59:47;;;;;;;14.82;2.45;;;;;;;;;;5007711;28;20065;-69
2023/10/30 11:02:21;;;;;;;14.35;2.85;;;;;;;;;;4995708;28;20121;-69
2023/10/30 11:04:50;;;;;;;14.43;2.55;;;;;;;;;;5014291;28;20152;-69
2023/10/30 11:07:20;;;;;;;14.13;2.45;;;;;;;;;;5015020;28;20028;-69
2023/10/30 11:09:48;;;;;;;8.95;2.10;;;;;;;;;;5015227;28;20029;-69
2023/10/30 11:12:36;;;;;;;11.55;2.63;;;;;;;;;;5032380;28;20025;-69
2023/10/30 11:15:12;;;;;;;8.20;2.28;;;;;;;;;;5015142;28;20121;-69
2023/10/30 11:17:38;;;;;;;9.40;2.40;;;;;;;;;;5015228;28;20025;-69
2023/10/30 11:20:07;;;;;;;11.43;2.53;;;;;;;;;;5032430;28;20493;-69
2023/10/30 11:22:40;;;;;;;11.85;2.67;;;;;;;;;;5014702;28;20057;-69
2023/10/30 11:25:07;;;;;;;17.27;2.88;;;;;;;;;;5014794;28;20029;-69
2023/10/30 11:27:33;;;;;;;9.60;2.53;;;;;;;;;;5015165;28;20022;-69
2023/10/30 11:30:08;;;;;;;13.20;2.92;;;;;;;;;;5014779;28;20017;-70
2023/10/30 11:32:37;;;;;;;9.07;2.40;;;;;;;;;;5031963;28;20107;-69
2023/10/30 11:35:03;;;;;;;12.07;2.85;;;;;;;;;;5014501;28;20044;-69
2023/10/30 11:37:32;;;;;;;19.15;3.33;;;;;;;;;;5014452;28;20530;-69
2023/10/30 11:40:01;;;;;;;13.18;2.40;;;;;;;;;;5032314;28;20028;-69
2023/10/30 11:42:30;;;;;;;12.50;2.08;;;;;;;;;;5031945;28;20021;-69
2023/10/30 11:45:25;;;;;;;6.95;1.90;;;;;;;;;;5014672;28;20052;-69
2023/10/30 11:48:09;;;;;;;10.82;3.72;;;;;;;;;;5014538;28;20021;-69
2023/10/30 11:50:40;;;;;;;11.07;2.35;;;;;;;;;;5031950;28;20503;-69
2023/10/30 11:53:07;;;;;;;7.95;2.70;;;;;;;;;;5013258;28;20033;-69
2023/10/30 11:55:33;;;;;;;9.55;2.30;;;;;;;;;;5022718;28;20490;-69
2023/10/30 11:57:59;;;;;;;11.30;2.50;;;;;;;;;;5013970;28;20053;-69
2023/10/30 12:00:24;;;;;;;12.75;2.25;;;;;;;;;;5014373;28;20035;-69
2023/10/30 12:02:50;;;;;;;8.73;1.90;;;;;;;;;;5032066;28;20083;-69
2023/10/30 12:05:15;;;;;;;12.95;3.15;;;;;;;;;;5031785;28;20430;-69
2023/10/30 12:07:41;;;;;;;8.68;1.60;;;;;;;;;;5014399;28;20056;-69
2023/10/30 12:10:07;;;;;;;16.40;2.67;;;;;;;;;;5013930;28;20037;-69
2023/10/30 12:12:32;;;;;;;13.73;2.05;;;;;;;;;;5031811;28;20478;-69
2023/10/30 12:14:58;;;;;;;10.23;2.03;;;;;;;;;;5014267;28;20037;-69
2023/10/30 12:17:24;;;;;;;10.30;2.30;;;;;;;;;;5009218;28;20386;-69
2023/10/30 12:19:49;;;;;;;9.43;2.88;;;;;;;;;;5011310;28;20026;-69
2023/10/30 12:22:15;;;;;;;9.80;2.40;;;;;;;;;;5017169;28;20501;-69
2023/10/30 12:24:40;;;;;;;6.80;2.08;;;;;;;;;;5011973;28;20105;-69
2023/10/30 12:27:05;;;;;;;11.50;2.38;;;;;;;;;;4994233;28;20479;-69
2023/10/30 12:29:30;;;;;;;9.13;2.47;;;;;;;;;;5013974;28;20036;-69
2023/10/30 12:32:02;;;;;;;10.15;2.03;;;;;;;;;;5011466;28;20084;-69
2023/10/30 12:34:28;;;;;;;5.05;1.90;;;;;;;;;;5012100;28;20022;-69
2023/10/30 12:36:53;;;;;;;8.88;2.60;;;;;;;;;;4997049;28;21356;-69
2023/10/30 12:39:21;;;;;;;7.85;2.40;;;;;;;;;;5013512;28;20050;-69
2023/10/30 12:41:51;;;;;;;10.23;2.65;;;;;;;;;;5013752;28;20029;-69
2023/10/30 12:44:17;;;;;;;10.45;2.08;;;;;;;;;;5031918;28;20442;-69
2023/10/30 12:46:43;;;;;;;13.25;2.42;;;;;;;;;;5030634;28;20056;-69
2023/10/30 12:49:08;;;;;;;10.73;2.92;;;;;;;;;;5014035;28;20053;-69
2023/10/30 12:51:35;;;;;;;15.32;2.45;;;;;;;;;;5030763;28;20112;-69
2023/10/30 12:54:00;;;;;;;10.00;3.00;;;;;;;;;;5031309;28;20501;-69
2023/10/30 12:56:26;;;;;;;11.65;2.95;;;;;;;;;;5030505;28;20128;-69
2023/10/30 12:58:51;;;;;;;13.75;2.95;;;;;;;;;;5031380;28;20096;-69
2023/10/30 13:01:16;;;;;;;7.70;3.42;;;;;;;;;;5030855;28;20030;-69
2023/10/30 13:03:41;;;;;;;13.80;2.65;;;;;;;;;;5031297;28;20028;-69
2023/10/30 13:06:07;;;;;;;12.30;3.00;;;;;;;;;;5031234;28;20109;-69
2023/10/30 13:08:32;;;;;;;12.60;2.97;;;;;;;;;;5031304;28;20467;-69
2023/10/30 13:10:58;;;;;;;11.38;2.95;;;;;;;;;;5029994;28;20036;-69
2023/10/30 13:13:24;;;;;;;8.50;2.20;;;;;;;;;;5031230;28;20026;-69
2023/10/30 13:15:49;;;;;;;8.85;2.25;;;;;;;;;;5013508;28;20367;-69
2023/10/30 13:18:14;;;;;;;6.70;2.38;;;;;;;;;;5030833;28;20029;-69
2023/10/30 13:20:39;;;;;;;14.00;2.85;;;;;;;;;;5012802;28;20025;-69
2023/10/30 13:23:05;;;;;;;13.40;2.75;;;;;;;;;;5030613;28;20079;-69
2023/10/30 13:25:31;;;;;;;8.52;3.17;;;;;;;;;;5013775;28;20517;-69
2023/10/30 13:27:56;;;;;;;12.18;2.25;;;;;;;;;;5030535;28;20536;-68
2023/10/30 13:30:22;;;;;;;15.65;2.92;;;;;;;;;;5031340;28;20056;-69
2023/10/30 13:32:48;;;;;;;9.57;2.28;;;;;;;;;;5033931;28;20029;-69
2023/10/30 13:35:13;;;;;;;35.17;3.72;;;;;;;;;;5034637;28;20033;-68
2023/10/30 13:37:39;;;;;;;7.88;2.50;;;;;;;;;;5034760;28;20111;-69
2023/10/30 13:40:05;;;;;;;14.45;3.03;;;;;;;;;;5034594;28;20087;-69
2023/10/30 13:42:30;;;;;;;11.60;2.40;;;;;;;;;;5033969;28;20036;-69
2023/10/30 13:44:55;;;;;;;11.38;2.60;;;;;;;;;;5034687;28;20029;-69
2023/10/30 13:47:21;;;;;;;8.82;2.50;;;;;;;;;;5034030;28;20033;-69
2023/10/30 13:49:47;;;;;;;11.85;2.15;;;;;;;;;;5016148;28;20025;-69
2023/10/30 13:52:13;;;;;;;12.02;2.10;;;;;;;;;;5062524;23;20065;-72
2023/10/30 13:54:38;;;;;;;10.98;2.50;;;;;;;;;;5055331;28;20029;-71
2023/10/30 13:57:04;;;;;;;11.20;2.53;;;;;;;;;;5054662;28;20075;-72
2023/10/30 13:59:29;;;;;;;12.88;2.85;;;;;;;;;;5054701;28;20025;-72
2023/10/30 14:01:54;;;;;;;13.88;3.13;;;;;;;;;;5054871;28;20502;-72
2023/10/30 14:04:20;;;;;;;11.80;2.42;;;;;;;;;;5054468;28;20490;-71
2023/10/30 14:06:45;;;;;;;9.65;2.70;;;;;;;;;;5036621;28;20040;-71
2023/10/30 14:09:12;;;;;;;6.18;2.40;;;;;;;;;;5055308;28;20037;-71
2023/10/30 14:11:37;;;;;;;8.80;2.30;;;;;;;;;;5054358;28;20474;-71
2023/10/30 14:14:03;;;;;;;10.63;2.20;;;;;;;;;;5024749;28;20025;-70
2023/10/30 14:16:28;;;;;;;11.05;2.10;;;;;;;;;;5055670;28;20111;-71
2023/10/30 14:18:54;;;;;;;7.72;1.95;;;;;;;;;;5055355;28;20021;-71
2023/10/30 14:21:22;;;;;;;8.00;2.03;;;;;;;;;;5055508;28;20498;-71
2023/10/30 14:23:47;;;;;;;9.63;2.80;;;;;;;;;;5037733;28;20029;-71
2023/10/30 14:26:12;;;;;;;12.07;2.15;;;;;;;;;;5054922;28;20082;-71